Terminal Aerodrome Forecast
Issued by NWS Quad Cities IA IL

Home | Current Version | Previous Version | Text Only | Print | Product List | Glossary On
Versions: 1 2 3 4 5 6 7 8 9 10 11 12 13 14 15 16 17 18
000
FTUS43 KDVN 191100
TAFMLI
TAF
KMLI 191120Z 1912/2012 11006KT P6SM BKN250
     FM191500 14012KT P6SM SCT250
     FM191800 16014G19KT P6SM SCT250
     FM200000 16009KT P6SM BKN250=

USA.gov is the U.S. government's official web portal to all federal, state and local government web resources and services.